Terminal Aerodrome Forecast
Issued by NWS

Home | Current Version | Previous Version | Text Only | Print | Product List | Glossary On
Versions: 1 2 3 4 5 6 7 8 9 10 11 12 13 14 15 16 17 18 19 20 21 22 23 24
625
FTUS41 KBUF 191438 AAA
TAFJHW
TAF AMD
KJHW 191438Z 1915/2012 25012KT P6SM BKN025
     FM191700 27012KT P6SM VCSH BKN040
     FM192200 27008KT P6SM BKN040
     FM200200 27006KT P6SM SCT060
     FM200600 23004KT P6SM SCT250
     FM200900 22004KT 2SM BR SCT070
      AMD LTD TO CLD VIS AND WIND=

USA.gov is the U.S. government's official web portal to all federal, state and local government web resources and services.